Kezdőlap
METAR-TAF:

METAR-TAF

Repülőterek :

Ainsworth, Nebraska, Amerikai Egyesült Államok

földrajzi szélesség: 42-35N, földrajzi hosszúság: 100-00W, magasság: 789 m

Jelenlegi meteorológiai megfigyelések

A jelentés 24 perccel ezelõtt készült, 03:35 UTC
Kelet-délkeleti szél 3 kt
Hőmérséklet 22°C
Páratartalom 73%
Légköri nyomás 1010 hPa
Látótávolság: 16.1 km
Derült ég

METAR: KANW 130335Z AUTO 11003KT 10SM CLR 22/17 A2983 RMK AO2 T02240170 TSNO

Idő: 22:59 (03:59 UTC)


TAF: hiányzik

Meteorológiai megfigyelések és előrejelzések több, mint 4000 repülőtéren (METAR és TAF jelentéseket).

A térképen piros és sárga pontok jelzik az elérhető meteorológiai állomásokat.

Mozgassa az egeret a pont fölött, hogy megjelenjen az állomás neve.

Azután kattintson az időjárási megfigyelések és előrejelzések megtekintéséhez.

A térkép megváltoztatása: kattintson a fekete keresztel jelölt zöld gombra ráközelítéshez, a vonallal jelölt zöld gombra távolításhoz, vagy a zöld nyilakra a szomszédos térképek eléréséhez.


METAR-TAF: